createdAt,value
2019-01-29T00:02:20.132Z,4.85
2019-01-29T00:04:48.832Z,5.10
2019-01-29T00:07:17.486Z,4.50
2019-01-29T00:09:47.117Z,5.20
2019-01-29T00:12:15.732Z,5.83
2019-01-29T00:14:44.465Z,4.75
2019-01-29T00:17:13.084Z,4.80
2019-01-29T00:19:41.729Z,5.25
2019-01-29T00:22:10.390Z,5.70
2019-01-29T00:24:39.261Z,5.70
2019-01-29T00:27:07.915Z,5.70
2019-01-29T00:29:36.556Z,5.70
2019-01-29T00:32:05.474Z,5.70
2019-01-29T00:34:34.074Z,6.08
2019-01-29T00:37:02.713Z,6.00
2019-01-29T00:39:31.336Z,5.95
2019-01-29T00:41:59.953Z,7.12
2019-01-29T00:44:28.547Z,6.90
2019-01-29T00:46:57.227Z,6.22
2019-01-29T00:49:25.847Z,6.72
2019-01-29T00:51:55.036Z,6.37
2019-01-29T00:54:23.647Z,6.97
2019-01-29T00:56:52.261Z,6.90
2019-01-29T00:59:20.899Z,7.20
2019-01-29T01:01:49.519Z,7.60
2019-01-29T01:04:18.123Z,7.35
2019-01-29T01:06:46.747Z,7.12
2019-01-29T01:09:15.376Z,7.67
2019-01-29T01:11:44.076Z,8.00
2019-01-29T01:14:12.700Z,7.60
2019-01-29T01:16:41.354Z,7.90
2019-01-29T01:19:09.976Z,7.72
2019-01-29T01:21:38.573Z,7.65
2019-01-29T01:24:07.267Z,8.78
2019-01-29T01:26:35.863Z,8.13
2019-01-29T01:29:04.620Z,8.10
2019-01-29T01:31:33.227Z,8.28
2019-01-29T01:34:01.857Z,8.75
2019-01-29T01:36:30.452Z,9.23
2019-01-29T01:38:59.075Z,9.18
2019-01-29T01:41:27.687Z,9.60
2019-01-29T01:43:56.312Z,9.10
2019-01-29T01:46:24.919Z,8.70
2019-01-29T01:48:53.543Z,8.78
2019-01-29T01:51:22.194Z,9.58
2019-01-29T01:53:50.820Z,9.10
2019-01-29T01:56:19.433Z,10.05
2019-01-29T01:58:48.083Z,9.05
2019-01-29T02:01:16.699Z,9.73
2019-01-29T02:03:45.329Z,9.98
2019-01-29T02:06:13.931Z,9.50
2019-01-29T02:08:42.554Z,9.25
2019-01-29T02:11:11.164Z,9.98
2019-01-29T02:13:39.823Z,10.60
2019-01-29T02:16:08.419Z,9.55
2019-01-29T02:18:37.042Z,10.40
2019-01-29T02:21:05.654Z,9.68
2019-01-29T02:23:34.270Z,9.90
2019-01-29T02:26:02.868Z,10.13
2019-01-29T02:28:31.496Z,10.10
2019-01-29T02:31:00.111Z,10.32
2019-01-29T02:33:28.719Z,10.50
2019-01-29T02:35:57.461Z,9.85
2019-01-29T02:38:26.104Z,10.50
2019-01-29T02:40:54.741Z,9.58
2019-01-29T02:43:23.377Z,10.25
2019-01-29T02:45:52.017Z,10.20
2019-01-29T02:48:20.688Z,9.83
2019-01-29T02:50:49.293Z,9.83
2019-01-29T02:53:18.649Z,9.83
2019-01-29T02:55:47.291Z,9.15
2019-01-29T02:58:15.911Z,10.10
2019-01-29T03:00:44.518Z,9.45
2019-01-29T03:03:13.148Z,8.98
2019-01-29T03:05:41.803Z,9.48
2019-01-29T03:08:10.415Z,9.75
2019-01-29T03:10:39.193Z,8.55
2019-01-29T03:13:07.872Z,9.10
2019-01-29T03:15:36.495Z,9.83
2019-01-29T03:18:05.253Z,9.05
2019-01-29T03:20:33.884Z,9.35
2019-01-29T03:23:02.499Z,9.15
2019-01-29T03:25:31.106Z,9.23
2019-01-29T03:27:59.705Z,8.75
2019-01-29T03:30:28.342Z,9.15
2019-01-29T03:32:56.917Z,8.55
2019-01-29T03:35:25.562Z,8.45
2019-01-29T03:37:54.409Z,8.10
2019-01-29T03:40:24.782Z,9.03
2019-01-29T03:42:53.523Z,9.15
2019-01-29T03:45:22.282Z,8.95
2019-01-29T03:47:50.899Z,9.08
2019-01-29T03:50:20.487Z,8.13
2019-01-29T03:52:49.236Z,9.23
2019-01-29T03:55:18.003Z,8.05
2019-01-29T03:57:46.602Z,8.25
2019-01-29T04:00:17.358Z,8.60
2019-01-29T04:02:46.055Z,8.18
2019-01-29T04:05:14.671Z,8.80
2019-01-29T04:07:43.339Z,7.87
2019-01-29T04:10:15.606Z,7.83
2019-01-29T04:12:43.696Z,9.10
2019-01-29T04:15:14.407Z,7.65
2019-01-29T04:17:43.196Z,7.70
2019-01-29T04:20:14.491Z,8.23
2019-01-29T04:22:43.101Z,8.15
2019-01-29T04:25:11.863Z,8.38
2019-01-29T04:27:40.539Z,8.28
2019-01-29T04:30:11.867Z,7.17
2019-01-29T04:32:40.476Z,7.80
2019-01-29T04:35:09.180Z,7.40
2019-01-29T04:37:38.896Z,7.28
2019-01-29T04:40:09.563Z,7.80
2019-01-29T04:42:38.173Z,7.47
2019-01-29T04:45:08.804Z,7.12
2019-01-29T04:47:37.425Z,7.47
2019-01-29T04:50:06.963Z,8.05
2019-01-29T04:52:35.621Z,7.47
2019-01-29T04:55:04.943Z,7.55
2019-01-29T04:57:33.583Z,6.60
2019-01-29T05:00:02.211Z,7.12
2019-01-29T05:02:30.836Z,6.25
2019-01-29T05:04:59.467Z,6.62
2019-01-29T05:07:28.088Z,6.03
2019-01-29T05:09:56.710Z,6.37
2019-01-29T05:12:25.331Z,6.35
2019-01-29T05:14:54.019Z,5.97
2019-01-29T05:17:22.667Z,6.45
2019-01-29T05:19:51.291Z,6.20
2019-01-29T05:22:19.879Z,6.50
2019-01-29T05:24:48.488Z,6.42
2019-01-29T05:27:17.319Z,6.30
2019-01-29T05:29:45.930Z,6.20
2019-01-29T05:32:14.547Z,6.17
2019-01-29T05:34:43.264Z,6.60
2019-01-29T05:37:11.875Z,6.55
2019-01-29T05:39:40.475Z,5.97
2019-01-29T05:42:09.104Z,6.15
2019-01-29T05:44:37.770Z,6.40
2019-01-29T05:47:06.511Z,6.25
2019-01-29T05:49:35.131Z,7.42
2019-01-29T05:52:04.283Z,7.22
2019-01-29T05:54:32.904Z,6.30
2019-01-29T05:57:01.517Z,7.15
2019-01-29T05:59:30.359Z,6.97
2019-01-29T06:01:58.975Z,6.67
2019-01-29T06:04:27.679Z,7.45
2019-01-29T06:06:56.304Z,6.70
2019-01-29T06:09:24.912Z,6.67
2019-01-29T06:11:53.552Z,6.95
2019-01-29T06:14:22.180Z,6.90
2019-01-29T06:16:50.792Z,6.90
2019-01-29T06:19:19.404Z,6.53
2019-01-29T06:21:48.052Z,6.85
2019-01-29T06:24:25.286Z,6.12
2019-01-29T06:26:47.251Z,6.90
2019-01-29T06:29:15.856Z,6.83
2019-01-29T06:31:44.475Z,6.65
2019-01-29T06:34:13.162Z,6.70
2019-01-29T06:36:41.988Z,6.83
2019-01-29T06:39:10.711Z,6.80
2019-01-29T06:41:39.335Z,6.17
2019-01-29T06:44:08.001Z,5.78
2019-01-29T06:46:36.697Z,5.60
2019-01-29T06:49:05.475Z,6.05
2019-01-29T06:51:34.319Z,5.25
2019-01-29T06:54:02.929Z,5.15
2019-01-29T06:56:31.600Z,5.58
2019-01-29T06:59:00.225Z,5.03
2019-01-29T07:01:28.854Z,5.67
2019-01-29T07:03:57.534Z,5.62
2019-01-29T07:06:26.307Z,5.87
2019-01-29T07:08:54.927Z,5.58
2019-01-29T07:11:23.561Z,5.45
2019-01-29T07:13:52.187Z,6.70
2019-01-29T07:16:33.863Z,7.47
2019-01-29T07:19:06.689Z,8.05
2019-01-29T07:21:35.384Z,9.25
2019-01-29T07:24:04.120Z,9.75
2019-01-29T07:26:32.757Z,10.18
2019-01-29T07:29:01.532Z,9.95
2019-01-29T07:31:30.190Z,11.50
2019-01-29T07:33:58.793Z,10.28
2019-01-29T07:36:27.431Z,10.98
2019-01-29T07:38:56.079Z,11.88
2019-01-29T07:41:24.794Z,11.38
2019-01-29T07:43:53.446Z,11.73
2019-01-29T07:46:23.843Z,11.12
2019-01-29T07:48:52.574Z,11.10
2019-01-29T07:51:21.251Z,10.82
2019-01-29T07:53:49.887Z,10.28
2019-01-29T07:56:18.774Z,11.20
2019-01-29T07:58:49.277Z,9.58
2019-01-29T08:01:18.046Z,9.35
2019-01-29T08:03:46.740Z,9.45
2019-01-29T08:06:15.366Z,8.40
2019-01-29T08:08:44.108Z,9.38
2019-01-29T08:11:12.818Z,8.78
2019-01-29T08:13:41.501Z,7.95
2019-01-29T08:16:10.116Z,8.48
2019-01-29T08:18:38.829Z,6.83
2019-01-29T08:21:07.582Z,7.85
2019-01-29T08:23:36.267Z,6.83
2019-01-29T08:26:05.043Z,7.72
2019-01-29T08:28:33.801Z,5.97
2019-01-29T08:31:02.553Z,7.50
2019-01-29T08:33:31.216Z,6.37
2019-01-29T08:35:59.885Z,5.92
2019-01-29T08:38:28.543Z,5.50
2019-01-29T08:40:57.172Z,6.45
2019-01-29T08:43:26.047Z,6.35
2019-01-29T08:45:54.693Z,6.30
2019-01-29T08:48:23.329Z,7.20
2019-01-29T08:50:51.984Z,7.07
2019-01-29T08:53:20.693Z,7.00
2019-01-29T08:55:49.555Z,6.87
2019-01-29T08:58:26.620Z,6.42
2019-01-29T09:00:48.552Z,6.28
2019-01-29T09:03:17.302Z,6.60
2019-01-29T09:05:45.991Z,5.72
2019-01-29T09:08:14.626Z,7.15
2019-01-29T09:10:43.303Z,7.50
2019-01-29T09:13:11.947Z,7.95
2019-01-29T09:15:40.591Z,7.33
2019-01-29T09:18:09.388Z,7.70
2019-01-29T09:20:38.061Z,7.58
2019-01-29T09:23:06.718Z,7.90
2019-01-29T09:25:35.396Z,8.37
2019-01-29T09:28:04.125Z,7.40
2019-01-29T09:30:32.780Z,7.83
2019-01-29T09:33:01.508Z,7.90
2019-01-29T09:35:30.335Z,6.50
2019-01-29T09:37:58.971Z,7.23
2019-01-29T09:40:27.616Z,7.60
2019-01-29T09:42:56.291Z,7.77
2019-01-29T09:45:24.989Z,8.17
2019-01-29T09:47:53.619Z,7.70
2019-01-29T09:50:22.565Z,8.20
2019-01-29T09:52:51.467Z,7.37
2019-01-29T09:55:28.874Z,8.70
2019-01-29T09:57:51.384Z,7.80
2019-01-29T10:00:28.588Z,8.70
2019-01-29T10:02:57.570Z,8.47
2019-01-29T10:05:26.358Z,8.87
2019-01-29T10:07:55.166Z,8.48
2019-01-29T10:10:23.859Z,9.47
2019-01-29T10:12:52.655Z,8.77
2019-01-29T10:15:24.098Z,9.03
2019-01-29T10:17:52.799Z,9.27
2019-01-29T10:20:21.671Z,8.53
2019-01-29T10:22:50.418Z,8.50
2019-01-29T10:25:19.237Z,10.17
2019-01-29T10:27:48.232Z,8.77
2019-01-29T10:30:17.440Z,8.40
2019-01-29T10:32:46.255Z,8.47
2019-01-29T10:35:16.467Z,8.33
2019-01-29T10:37:45.161Z,8.37
2019-01-29T10:40:16.237Z,9.40
2019-01-29T10:42:44.921Z,8.33
2019-01-29T10:45:14.984Z,7.83
2019-01-29T10:47:43.573Z,9.00
2019-01-29T10:50:14.915Z,8.47
2019-01-29T10:52:43.666Z,10.17
2019-01-29T10:55:12.893Z,8.10
2019-01-29T10:57:41.496Z,8.83
2019-01-29T11:00:13.743Z,9.23
2019-01-29T11:02:42.327Z,10.00
2019-01-29T11:05:12.904Z,8.67
2019-01-29T11:07:41.531Z,9.43
2019-01-29T11:10:11.115Z,8.97
2019-01-29T11:12:39.723Z,9.70
2019-01-29T11:15:15.098Z,12.20
2019-01-29T11:17:43.763Z,9.37
2019-01-29T11:20:13.369Z,8.10
2019-01-29T11:22:41.983Z,9.07
2019-01-29T11:25:14.219Z,9.77
2019-01-29T11:27:42.840Z,8.70
2019-01-29T11:30:12.911Z,8.27
2019-01-29T11:32:41.616Z,9.67
2019-01-29T11:35:10.471Z,10.03
2019-01-29T11:37:39.133Z,10.17
2019-01-29T11:40:10.466Z,9.50
2019-01-29T11:42:39.127Z,11.40
2019-01-29T11:45:11.051Z,10.07
2019-01-29T11:47:39.668Z,11.50
2019-01-29T11:50:09.040Z,9.30
2019-01-29T11:52:37.720Z,9.60
2019-01-29T11:55:06.668Z,9.53
2019-01-29T11:57:35.330Z,12.00
2019-01-29T12:00:05.605Z,8.53
2019-01-29T12:02:34.245Z,11.83
2019-01-29T12:05:02.942Z,12.47
2019-01-29T12:07:31.662Z,14.13
2019-01-29T12:10:00.351Z,13.00
2019-01-29T12:12:28.978Z,13.50
2019-01-29T12:14:57.630Z,11.10
2019-01-29T12:17:26.240Z,13.10
2019-01-29T12:19:54.890Z,13.23
2019-01-29T12:22:23.572Z,12.23
2019-01-29T12:24:52.200Z,11.97
2019-01-29T12:27:20.900Z,12.10
2019-01-29T12:29:49.560Z,9.60
2019-01-29T12:32:18.181Z,13.50
2019-01-29T12:34:47.131Z,12.30
2019-01-29T12:37:15.871Z,13.43
2019-01-29T12:39:44.604Z,14.80
2019-01-29T12:42:13.209Z,14.90
2019-01-29T12:44:41.901Z,16.17
2019-01-29T12:47:10.528Z,15.77
2019-01-29T12:49:39.167Z,15.37
2019-01-29T12:52:23.370Z,16.13
2019-01-29T12:54:52.096Z,17.30
2019-01-29T12:57:20.694Z,17.70
2019-01-29T12:59:51.406Z,17.87
2019-01-29T13:02:19.697Z,15.60
2019-01-29T13:04:48.365Z,15.40
2019-01-29T13:07:16.978Z,15.83
2019-01-29T13:09:45.607Z,16.60
2019-01-29T13:12:14.211Z,17.53
2019-01-29T13:14:42.889Z,17.53
2019-01-29T13:17:11.526Z,17.40
2019-01-29T13:19:40.177Z,16.53
2019-01-29T13:22:08.952Z,16.57
2019-01-29T13:24:37.591Z,16.77
2019-01-29T13:27:06.211Z,16.90
2019-01-29T13:29:34.899Z,14.40
2019-01-29T13:32:03.535Z,16.23
2019-01-29T13:34:32.167Z,16.17
2019-01-29T13:37:00.824Z,11.27
2019-01-29T13:39:29.439Z,13.93
2019-01-29T13:41:58.064Z,16.03
2019-01-29T13:44:26.785Z,17.10
2019-01-29T13:46:55.462Z,16.70
2019-01-29T13:49:24.071Z,17.20
2019-01-29T13:51:52.729Z,16.70
2019-01-29T13:54:21.546Z,16.90
2019-01-29T13:56:50.267Z,17.50
2019-01-29T13:59:18.903Z,17.40
2019-01-29T14:01:47.632Z,17.77
2019-01-29T14:04:16.249Z,16.93
2019-01-29T14:06:44.980Z,18.43
2019-01-29T14:09:13.580Z,18.97
2019-01-29T14:11:42.292Z,12.77
2019-01-29T14:14:10.931Z,14.23
2019-01-29T14:16:39.615Z,15.70
2019-01-29T14:19:08.298Z,8.33
2019-01-29T14:21:36.971Z,15.77
2019-01-29T14:24:05.680Z,16.90
2019-01-29T14:26:34.379Z,16.57
2019-01-29T14:29:03.070Z,15.13
2019-01-29T14:31:31.748Z,15.90
2019-01-29T14:34:00.406Z,14.53
2019-01-29T14:36:29.129Z,10.27
2019-01-29T14:39:17.076Z,12.53
2019-01-29T14:41:45.762Z,12.33
2019-01-29T14:44:20.435Z,13.20
2019-01-29T14:46:49.280Z,14.33
2019-01-29T14:49:17.944Z,12.63
2019-01-29T14:51:46.676Z,12.23
2019-01-29T14:54:15.452Z,11.70
2019-01-29T14:56:44.201Z,13.20
2019-01-29T14:59:12.819Z,12.90
2019-01-29T15:01:41.626Z,12.93
2019-01-29T15:04:10.271Z,12.30
2019-01-29T15:06:38.939Z,13.50
2019-01-29T15:09:10.512Z,13.63
2019-01-29T15:11:39.192Z,13.97
2019-01-29T15:14:09.390Z,13.50
2019-01-29T15:16:57.288Z,13.70
2019-01-29T15:19:28.683Z,13.50
2019-01-29T15:21:57.452Z,13.50
2019-01-29T15:24:26.069Z,13.60
2019-01-29T15:26:54.726Z,12.70
2019-01-29T15:29:23.359Z,14.00
2019-01-29T15:31:52.049Z,14.30
2019-01-29T15:34:20.734Z,14.80
2019-01-29T15:36:49.409Z,13.97
2019-01-29T15:39:18.133Z,15.33
2019-01-29T15:41:46.906Z,15.87
2019-01-29T15:44:15.533Z,14.77
2019-01-29T15:46:44.267Z,14.30
2019-01-29T15:49:12.937Z,14.73
2019-01-29T15:51:41.613Z,15.27
2019-01-29T15:54:10.247Z,14.30
2019-01-29T15:56:38.940Z,14.60
2019-01-29T15:59:07.595Z,16.57
2019-01-29T16:01:36.322Z,14.10
2019-01-29T16:04:05.144Z,14.63
2019-01-29T16:06:33.830Z,14.63
2019-01-29T16:09:03.107Z,14.37
2019-01-29T16:11:31.791Z,14.30
2019-01-29T16:14:00.371Z,15.60
2019-01-29T16:16:29.047Z,15.80
2019-01-29T16:18:57.756Z,16.82
2019-01-29T16:21:26.499Z,15.43
2019-01-29T16:23:55.160Z,15.33
2019-01-29T16:26:23.837Z,15.38
2019-01-29T16:28:52.557Z,14.93
2019-01-29T16:31:21.280Z,15.32
2019-01-29T16:33:49.936Z,15.43
2019-01-29T16:36:18.583Z,15.07
2019-01-29T16:38:47.223Z,14.10
2019-01-29T16:41:15.908Z,18.02
2019-01-29T16:43:44.599Z,14.63
2019-01-29T16:46:13.277Z,16.07
2019-01-29T16:48:42.026Z,15.98
2019-01-29T16:51:10.650Z,16.30
2019-01-29T16:53:39.387Z,15.95
2019-01-29T16:56:08.008Z,16.12
2019-01-29T16:58:36.665Z,16.15
2019-01-29T17:01:05.928Z,18.02
2019-01-29T17:03:34.632Z,16.30
2019-01-29T17:06:03.705Z,16.40
2019-01-29T17:08:32.387Z,15.55
2019-01-29T17:11:01.042Z,15.10
2019-01-29T17:13:29.899Z,15.30
2019-01-29T17:15:58.633Z,14.98
2019-01-29T17:18:28.936Z,17.62
2019-01-29T17:20:57.565Z,15.95
2019-01-29T17:23:26.473Z,17.35
2019-01-29T17:25:55.170Z,19.80
2019-01-29T17:28:23.811Z,15.68
2019-01-29T17:30:52.440Z,15.48
2019-01-29T17:33:21.158Z,16.45
2019-01-29T17:35:49.838Z,15.60
2019-01-29T17:38:18.575Z,17.00
2019-01-29T17:40:47.429Z,15.45
2019-01-29T17:43:16.408Z,16.37
2019-01-29T17:45:46.715Z,14.95
2019-01-29T17:48:15.478Z,15.70
2019-01-29T17:50:44.667Z,16.12
2019-01-29T17:53:13.500Z,13.28
2019-01-29T17:55:42.798Z,13.18
2019-01-29T17:58:12.456Z,14.50
2019-01-29T18:00:43.922Z,13.65
2019-01-29T18:03:12.583Z,13.85
2019-01-29T18:05:41.353Z,14.20
2019-01-29T18:08:10.003Z,12.78
2019-01-29T18:10:39.086Z,11.35
2019-01-29T18:13:07.779Z,11.10
2019-01-29T18:15:36.391Z,10.10
2019-01-29T18:18:05.411Z,11.25
2019-01-29T18:20:34.042Z,10.70
2019-01-29T18:23:02.772Z,10.58
2019-01-29T18:25:31.411Z,9.58
2019-01-29T18:28:01.213Z,10.10
2019-01-29T18:30:31.798Z,10.90
2019-01-29T18:33:00.478Z,9.25
2019-01-29T18:35:29.162Z,9.98
2019-01-29T18:37:57.855Z,10.15
2019-01-29T18:40:35.728Z,9.25
2019-01-29T18:43:04.511Z,11.40
2019-01-29T18:45:33.140Z,10.70
2019-01-29T18:48:01.741Z,9.60
2019-01-29T18:50:30.395Z,10.25
2019-01-29T18:52:59.108Z,10.82
2019-01-29T18:55:27.749Z,10.48
2019-01-29T18:57:56.391Z,9.58
2019-01-29T19:00:25.568Z,9.70
2019-01-29T19:02:54.179Z,11.03
2019-01-29T19:05:23.927Z,9.93
2019-01-29T19:07:52.644Z,10.10
2019-01-29T19:10:22.065Z,9.45
2019-01-29T19:12:50.929Z,10.03
2019-01-29T19:15:21.198Z,10.05
2019-01-29T19:17:50.162Z,10.63
2019-01-29T19:20:21.022Z,11.18
2019-01-29T19:22:49.810Z,9.40
2019-01-29T19:25:18.617Z,10.48
2019-01-29T19:27:47.305Z,11.63
2019-01-29T19:30:21.186Z,9.95
2019-01-29T19:32:49.990Z,9.40
2019-01-29T19:35:18.830Z,10.38
2019-01-29T19:37:47.488Z,9.90
2019-01-29T19:40:16.246Z,9.98
2019-01-29T19:42:44.996Z,9.28
2019-01-29T19:45:16.839Z,10.38
2019-01-29T19:47:45.535Z,10.23
2019-01-29T19:50:16.879Z,10.82
2019-01-29T19:52:45.642Z,10.25
2019-01-29T19:55:14.356Z,10.00
2019-01-29T19:57:43.080Z,10.30
2019-01-29T20:00:15.732Z,9.93
2019-01-29T20:02:44.350Z,10.10
2019-01-29T20:05:13.168Z,10.05
2019-01-29T20:07:42.012Z,10.63
2019-01-29T20:10:11.767Z,10.18
2019-01-29T20:12:40.380Z,10.25
2019-01-29T20:15:10.790Z,10.55
2019-01-29T20:17:39.483Z,11.43
2019-01-29T20:20:10.651Z,11.65
2019-01-29T20:22:39.263Z,10.80
2019-01-29T20:25:08.348Z,10.90
2019-01-29T20:27:36.961Z,11.35
2019-01-29T20:30:08.472Z,11.00
2019-01-29T20:32:37.190Z,10.80
2019-01-29T20:35:06.043Z,11.25
2019-01-29T20:37:34.670Z,10.05
2019-01-29T20:40:03.636Z,12.50
2019-01-29T20:42:32.236Z,12.78
2019-01-29T20:45:00.907Z,11.75
2019-01-29T20:47:29.515Z,11.45
2019-01-29T20:49:58.463Z,12.15
2019-01-29T20:52:27.447Z,12.00
2019-01-29T20:54:56.099Z,12.20
2019-01-29T20:57:24.743Z,10.90
2019-01-29T20:59:53.440Z,11.20
2019-01-29T21:02:22.066Z,10.48
2019-01-29T21:04:50.701Z,10.78
2019-01-29T21:07:19.410Z,11.80
2019-01-29T21:09:48.100Z,11.55
2019-01-29T21:12:16.783Z,12.28
2019-01-29T21:14:45.466Z,11.80
2019-01-29T21:17:14.084Z,11.28
2019-01-29T21:19:42.695Z,11.45
2019-01-29T21:22:11.371Z,10.78
2019-01-29T21:24:39.959Z,10.90
2019-01-29T21:27:08.679Z,13.00
2019-01-29T21:29:37.315Z,11.70
2019-01-29T21:32:06.048Z,12.10
2019-01-29T21:34:34.671Z,11.45
2019-01-29T21:37:03.311Z,13.20
2019-01-29T21:39:31.905Z,12.58
2019-01-29T21:42:00.578Z,13.18
2019-01-29T21:44:29.519Z,12.13
2019-01-29T21:46:58.169Z,11.50
2019-01-29T21:49:26.764Z,11.73
2019-01-29T21:51:55.430Z,10.40
2019-01-29T21:54:24.072Z,11.03
2019-01-29T21:56:52.731Z,11.10
2019-01-29T21:59:21.336Z,11.73
2019-01-29T22:01:50.014Z,11.50
2019-01-29T22:04:18.619Z,11.40
2019-01-29T22:06:47.267Z,12.10
2019-01-29T22:09:15.871Z,11.10
2019-01-29T22:11:44.507Z,12.30
2019-01-29T22:14:13.102Z,11.85
2019-01-29T22:16:41.727Z,11.50
2019-01-29T22:19:10.423Z,11.20
2019-01-29T22:21:39.075Z,12.30
2019-01-29T22:24:07.688Z,12.00
2019-01-29T22:26:36.311Z,11.85
2019-01-29T22:29:04.996Z,12.75
2019-01-29T22:31:33.619Z,11.93
2019-01-29T22:34:02.322Z,11.78
2019-01-29T22:36:30.976Z,10.90
2019-01-29T22:38:59.608Z,12.45
2019-01-29T22:41:28.220Z,11.57
2019-01-29T22:43:56.863Z,11.20
2019-01-29T22:46:25.497Z,10.72
2019-01-29T22:48:54.140Z,10.48
2019-01-29T22:51:22.767Z,10.68
2019-01-29T22:53:51.379Z,11.25
2019-01-29T22:56:20.339Z,11.43
2019-01-29T22:58:48.946Z,11.75
2019-01-29T23:01:23.162Z,10.23
2019-01-29T23:04:03.224Z,10.90
2019-01-29T23:06:44.563Z,10.28
2019-01-29T23:09:13.422Z,10.65
2019-01-29T23:11:42.251Z,10.85
2019-01-29T23:14:10.946Z,10.63
2019-01-29T23:16:39.606Z,10.45
2019-01-29T23:19:08.386Z,10.15
2019-01-29T23:21:37.028Z,11.00
2019-01-29T23:24:06.187Z,10.85
2019-01-29T23:26:34.913Z,10.23
2019-01-29T23:29:03.607Z,9.80
2019-01-29T23:31:32.340Z,9.88
2019-01-29T23:34:00.962Z,10.30
2019-01-29T23:36:29.609Z,10.05
2019-01-29T23:38:58.228Z,9.38
2019-01-29T23:41:26.900Z,9.68
2019-01-29T23:43:55.592Z,10.20
2019-01-29T23:46:24.225Z,9.75
2019-01-29T23:48:52.865Z,10.15
2019-01-29T23:51:21.519Z,9.85
2019-01-29T23:53:50.150Z,10.10
2019-01-29T23:56:18.747Z,9.50
2019-01-29T23:58:47.405Z,9.55
